Terminal Aerodrome Forecast
Issued by NWS Mt. Holly, NJ

Home | Current Version | Previous Version | Text Only | Print | Product List | Glossary On
Versions: 1 2 3 4 5 6 7 8 9 10 11 12 13 14 15 16 17 18 19 20 21 22 23 24 25 26 27 28
000
FTUS41 KPHI 280808 AAA
TAFABE
TAF AMD
KABE 280808Z 2808/2906 VRB03KT 5SM BR OVC007
      TEMPO 2808/2811 2SM BR OVC005
     FM281100 VRB03KT 2SM BR OVC005
     FM281300 VRB03KT P6SM OVC013
     FM281400 VRB03KT P6SM OVC020
     FM281700 21005KT P6SM BKN035
     FM290500 00000KT 5SM BR BKN015=

USA.gov is the U.S. government's official web portal to all federal, state and local government web resources and services.